createdAt,value
2019-02-20T00:01:01.689Z,7.47
2019-02-20T00:03:34.472Z,8.37
2019-02-20T00:06:06.024Z,7.50
2019-02-20T00:08:36.740Z,8.00
2019-02-20T00:11:07.628Z,8.03
2019-02-20T00:13:38.804Z,7.37
2019-02-20T00:16:10.242Z,7.80
2019-02-20T00:18:41.445Z,7.87
2019-02-20T00:21:12.231Z,8.80
2019-02-20T00:23:43.421Z,7.63
2019-02-20T00:26:16.237Z,7.90
2019-02-20T00:28:47.668Z,7.40
2019-02-20T00:31:18.957Z,6.57
2019-02-20T00:33:50.433Z,7.73
2019-02-20T00:36:21.515Z,7.83
2019-02-20T00:38:52.603Z,7.50
2019-02-20T00:41:23.493Z,7.27
2019-02-20T00:43:57.266Z,7.40
2019-02-20T00:46:29.783Z,6.47
2019-02-20T00:49:02.480Z,8.13
2019-02-20T00:51:35.083Z,5.93
2019-02-20T00:54:09.421Z,6.10
2019-02-20T00:56:40.402Z,6.33
2019-02-20T00:59:11.308Z,6.10
2019-02-20T01:01:42.421Z,6.50
2019-02-20T01:04:15.284Z,6.10
2019-02-20T01:06:46.497Z,6.50
2019-02-20T01:09:17.443Z,6.70
2019-02-20T01:11:48.655Z,7.10
2019-02-20T01:14:19.637Z,11.00
2019-02-20T01:16:50.679Z,6.83
2019-02-20T01:19:21.359Z,7.30
2019-02-20T01:21:53.076Z,6.53
2019-02-20T01:24:24.347Z,6.37
2019-02-20T01:26:55.469Z,7.43
2019-02-20T01:29:28.383Z,6.67
2019-02-20T01:31:59.841Z,6.27
2019-02-20T01:34:31.251Z,7.40
2019-02-20T01:37:02.400Z,5.77
2019-02-20T01:39:32.822Z,6.37
2019-02-20T01:42:03.482Z,7.20
2019-02-20T01:44:34.432Z,6.60
2019-02-20T01:47:05.393Z,7.20
2019-02-20T01:49:36.775Z,6.33
2019-02-20T01:52:07.763Z,6.90
2019-02-20T01:54:38.407Z,6.77
2019-02-20T01:57:09.395Z,6.13
2019-02-20T01:59:40.649Z,6.47
2019-02-20T02:02:11.949Z,6.60
2019-02-20T02:04:43.290Z,5.63
2019-02-20T02:07:15.371Z,6.63
2019-02-20T02:09:46.689Z,6.03
2019-02-20T02:12:17.623Z,6.40
2019-02-20T02:14:48.673Z,6.60
2019-02-20T02:17:19.667Z,6.10
2019-02-20T02:19:50.389Z,6.83
2019-02-20T02:22:21.844Z,6.00
2019-02-20T02:24:52.880Z,7.10
2019-02-20T02:27:24.974Z,5.83
2019-02-20T02:29:57.045Z,7.13
2019-02-20T02:32:28.234Z,6.53
2019-02-20T02:34:59.059Z,6.43
2019-02-20T02:37:30.338Z,6.10
2019-02-20T02:40:01.980Z,6.03
2019-02-20T02:42:33.233Z,6.37
2019-02-20T02:45:04.823Z,6.73
2019-02-20T02:47:35.901Z,5.27
2019-02-20T02:50:08.261Z,6.97
2019-02-20T02:52:39.085Z,5.47
2019-02-20T02:55:09.842Z,6.87
2019-02-20T02:57:40.713Z,6.80
2019-02-20T03:00:12.095Z,6.33
2019-02-20T03:02:42.938Z,5.67
2019-02-20T03:05:13.638Z,6.63
2019-02-20T03:07:44.234Z,6.50
2019-02-20T03:10:15.570Z,9.40
2019-02-20T03:12:46.903Z,6.67
2019-02-20T03:15:17.950Z,6.27
2019-02-20T03:17:48.832Z,5.67
2019-02-20T03:20:19.517Z,5.87
2019-02-20T03:22:50.596Z,5.80
2019-02-20T03:25:21.210Z,5.37
2019-02-20T03:27:53.934Z,5.97
2019-02-20T03:30:25.016Z,5.30
2019-02-20T03:32:55.671Z,6.40
2019-02-20T03:35:26.709Z,5.50
2019-02-20T03:37:57.765Z,5.57
2019-02-20T03:40:29.166Z,5.73
2019-02-20T03:43:00.329Z,6.20
2019-02-20T03:45:31.471Z,6.03
2019-02-20T03:48:02.519Z,6.87
2019-02-20T03:50:33.682Z,5.83
2019-02-20T03:53:05.131Z,5.77
2019-02-20T03:55:35.643Z,6.27
2019-02-20T03:58:06.649Z,6.00
2019-02-20T04:00:37.722Z,6.30
2019-02-20T04:03:08.821Z,6.30
2019-02-20T04:05:39.360Z,6.20
2019-02-20T04:08:09.780Z,6.73
2019-02-20T04:10:41.103Z,5.70
2019-02-20T04:13:11.771Z,6.27
2019-02-20T04:15:42.931Z,5.60
2019-02-20T04:18:13.967Z,5.03
2019-02-20T04:20:46.414Z,7.07
2019-02-20T04:23:17.684Z,6.90
2019-02-20T04:25:48.824Z,6.97
2019-02-20T04:28:19.646Z,6.47
2019-02-20T04:30:50.555Z,7.13
2019-02-20T04:33:21.611Z,6.47
2019-02-20T04:35:52.583Z,5.73
2019-02-20T04:38:23.869Z,5.20
2019-02-20T04:40:55.018Z,5.33
2019-02-20T04:43:25.813Z,4.87
2019-02-20T04:45:56.654Z,5.77
2019-02-20T04:48:27.740Z,5.57
2019-02-20T04:50:58.710Z,6.23
2019-02-20T04:53:29.134Z,6.17
2019-02-20T04:55:59.875Z,4.83
2019-02-20T04:58:30.827Z,4.70
2019-02-20T05:01:01.698Z,5.57
2019-02-20T05:03:32.765Z,5.07
2019-02-20T05:06:03.834Z,6.10
2019-02-20T05:08:35.029Z,5.23
2019-02-20T05:11:05.848Z,6.57
2019-02-20T05:13:36.752Z,6.43
2019-02-20T05:16:07.859Z,6.03
2019-02-20T05:18:38.672Z,6.33
2019-02-20T05:21:10.006Z,6.20
2019-02-20T05:23:42.764Z,7.50
2019-02-20T05:26:13.421Z,6.67
2019-02-20T05:28:45.369Z,5.93
2019-02-20T05:31:16.716Z,6.10
2019-02-20T05:33:47.486Z,6.20
2019-02-20T05:36:18.391Z,6.97
2019-02-20T05:38:49.161Z,6.00
2019-02-20T05:41:20.321Z,5.30
2019-02-20T05:43:51.033Z,7.27
2019-02-20T05:46:21.842Z,5.67
2019-02-20T05:48:52.840Z,6.77
2019-02-20T05:51:23.944Z,6.83
2019-02-20T05:53:54.737Z,6.60
2019-02-20T05:56:25.692Z,6.57
2019-02-20T05:58:56.738Z,7.60
2019-02-20T06:01:28.105Z,8.23
2019-02-20T06:04:01.833Z,6.43
2019-02-20T06:06:33.026Z,7.00
2019-02-20T06:09:05.272Z,7.33
2019-02-20T06:11:36.300Z,6.43
2019-02-20T06:14:07.538Z,7.03
2019-02-20T06:16:38.579Z,7.10
2019-02-20T06:19:09.649Z,6.97
2019-02-20T06:21:41.057Z,7.23
2019-02-20T06:24:11.597Z,7.00
2019-02-20T06:26:42.220Z,6.43
2019-02-20T06:29:13.341Z,6.63
2019-02-20T06:31:44.404Z,7.83
2019-02-20T06:34:15.865Z,6.53
2019-02-20T06:36:47.123Z,6.63
2019-02-20T06:39:18.173Z,7.00
2019-02-20T06:41:50.177Z,7.23
2019-02-20T06:44:21.355Z,6.17
2019-02-20T06:46:52.656Z,7.93
2019-02-20T06:49:23.312Z,10.20
2019-02-20T06:51:54.298Z,8.50
2019-02-20T06:54:25.120Z,7.50
2019-02-20T06:56:56.800Z,7.40
2019-02-20T06:59:28.037Z,7.80
2019-02-20T07:01:59.070Z,9.17
2019-02-20T07:04:30.655Z,8.00
2019-02-20T07:07:04.941Z,8.77
2019-02-20T07:09:37.889Z,9.33
2019-02-20T07:12:09.917Z,7.90
2019-02-20T07:14:44.154Z,8.70
2019-02-20T07:17:17.812Z,9.33
2019-02-20T07:19:51.792Z,11.53
2019-02-20T07:22:27.434Z,12.73
2019-02-20T07:25:03.786Z,10.53
2019-02-20T07:27:38.497Z,8.07
2019-02-20T07:30:10.361Z,9.10
2019-02-20T07:32:41.206Z,9.03
2019-02-20T07:35:12.239Z,9.80
2019-02-20T07:37:43.663Z,8.60
2019-02-20T07:40:14.819Z,10.60
2019-02-20T07:42:46.091Z,9.10
2019-02-20T07:45:17.330Z,7.63
2019-02-20T07:47:48.734Z,8.27
2019-02-20T07:50:19.737Z,8.23
2019-02-20T07:52:50.859Z,9.17
2019-02-20T07:55:22.020Z,9.37
2019-02-20T07:57:52.879Z,8.40
2019-02-20T08:00:23.539Z,8.53
2019-02-20T08:02:54.379Z,7.83
2019-02-20T08:05:25.676Z,7.67
2019-02-20T08:07:56.721Z,8.27
2019-02-20T08:10:28.850Z,7.43
2019-02-20T08:13:00.759Z,8.40
2019-02-20T08:15:32.992Z,9.10
2019-02-20T08:18:04.902Z,8.63
2019-02-20T08:20:36.819Z,8.53
2019-02-20T08:23:08.084Z,8.17
2019-02-20T08:25:41.117Z,8.27
2019-02-20T08:28:11.835Z,9.83
2019-02-20T08:30:42.670Z,9.10
2019-02-20T08:33:14.821Z,7.90
2019-02-20T08:35:45.886Z,8.03
2019-02-20T08:38:16.891Z,8.23
2019-02-20T08:40:49.380Z,8.40
2019-02-20T08:43:20.200Z,9.43
2019-02-20T08:45:52.315Z,8.40
2019-02-20T08:48:23.682Z,7.73
2019-02-20T08:50:54.963Z,7.60
2019-02-20T08:53:26.283Z,7.27
2019-02-20T08:55:57.610Z,6.93
2019-02-20T08:58:29.017Z,7.77
2019-02-20T09:01:00.935Z,6.87
2019-02-20T09:03:32.837Z,6.70
2019-02-20T09:06:04.568Z,6.57
2019-02-20T09:08:35.647Z,7.73
2019-02-20T09:11:06.345Z,6.30
2019-02-20T09:13:37.943Z,6.57
2019-02-20T09:16:09.092Z,7.43
2019-02-20T09:18:40.495Z,7.30
2019-02-20T09:21:11.286Z,7.30
2019-02-20T09:23:42.020Z,7.03
2019-02-20T09:26:13.236Z,6.47
2019-02-20T09:28:44.779Z,6.80
2019-02-20T09:31:15.724Z,7.20
2019-02-20T09:33:48.405Z,7.50
2019-02-20T09:36:19.548Z,6.40
2019-02-20T09:38:50.595Z,7.40
2019-02-20T09:41:21.723Z,6.77
2019-02-20T09:43:52.985Z,7.13
2019-02-20T09:46:23.982Z,6.13
2019-02-20T09:48:55.544Z,6.17
2019-02-20T09:51:27.056Z,6.83
2019-02-20T09:53:58.148Z,7.57
2019-02-20T09:56:29.290Z,6.72
2019-02-20T09:59:00.565Z,6.13
2019-02-20T10:01:32.231Z,5.80
2019-02-20T10:04:03.661Z,5.47
2019-02-20T10:06:35.307Z,5.70
2019-02-20T10:09:07.043Z,6.10
2019-02-20T10:11:37.687Z,5.85
2019-02-20T10:14:09.290Z,5.00
2019-02-20T10:16:40.672Z,5.73
2019-02-20T10:19:11.345Z,6.10
2019-02-20T10:21:42.554Z,5.72
2019-02-20T10:24:13.894Z,5.40
2019-02-20T10:26:46.203Z,6.30
2019-02-20T10:29:17.197Z,6.33
2019-02-20T10:31:49.206Z,5.80
2019-02-20T10:34:20.895Z,5.87
2019-02-20T10:36:52.987Z,5.50
2019-02-20T10:39:24.645Z,5.25
2019-02-20T10:41:55.939Z,5.20
2019-02-20T10:44:27.601Z,5.33
2019-02-20T10:46:58.779Z,5.95
2019-02-20T10:49:29.699Z,5.90
2019-02-20T10:52:00.978Z,4.73
2019-02-20T10:54:32.493Z,6.00
2019-02-20T10:57:04.194Z,4.95
2019-02-20T10:59:35.608Z,5.03
2019-02-20T11:02:06.501Z,4.55
2019-02-20T11:04:37.849Z,4.87
2019-02-20T11:07:09.071Z,5.22
2019-02-20T11:09:40.411Z,4.50
2019-02-20T11:12:13.018Z,4.33
2019-02-20T11:14:44.658Z,5.08
2019-02-20T11:17:15.749Z,5.03
2019-02-20T11:19:47.487Z,5.00
2019-02-20T11:22:18.515Z,4.58
2019-02-20T11:24:50.826Z,4.97
2019-02-20T11:27:22.082Z,4.47
2019-02-20T11:29:53.146Z,6.40
2019-02-20T11:32:24.528Z,4.92
2019-02-20T11:34:56.124Z,4.97
2019-02-20T11:37:27.457Z,5.27
2019-02-20T11:39:58.247Z,5.97
2019-02-20T11:42:29.792Z,6.17
2019-02-20T11:45:01.580Z,5.90
2019-02-20T11:47:33.658Z,5.97
2019-02-20T11:50:07.785Z,7.45
2019-02-20T11:52:39.422Z,6.47
2019-02-20T11:55:12.917Z,5.40
2019-02-20T11:57:45.538Z,5.55
2019-02-20T12:00:18.522Z,5.10
2019-02-20T12:02:49.786Z,6.58
2019-02-20T12:05:20.834Z,6.15
2019-02-20T12:07:52.141Z,5.58
2019-02-20T12:10:22.747Z,5.50
2019-02-20T12:12:54.607Z,7.10
2019-02-20T12:15:26.251Z,5.97
2019-02-20T12:17:57.669Z,6.77
2019-02-20T12:20:28.561Z,7.05
2019-02-20T12:23:00.541Z,6.37
2019-02-20T12:25:31.713Z,7.27
2019-02-20T12:28:02.812Z,6.00
2019-02-20T12:30:34.038Z,5.42
2019-02-20T12:33:04.623Z,5.00
2019-02-20T12:35:38.051Z,5.83
2019-02-20T12:38:10.296Z,6.00
2019-02-20T12:40:41.900Z,4.40
2019-02-20T12:43:13.549Z,5.28
2019-02-20T12:45:50.592Z,5.92
2019-02-20T12:48:22.700Z,5.37
2019-02-20T12:50:54.315Z,5.30
2019-02-20T12:53:25.041Z,5.65
2019-02-20T12:55:57.408Z,5.53
2019-02-20T12:58:28.279Z,5.28
2019-02-20T13:01:00.517Z,5.12
2019-02-20T13:03:31.658Z,5.22
2019-02-20T13:06:04.401Z,5.40
2019-02-20T13:08:36.169Z,5.05
2019-02-20T13:11:07.713Z,5.30
2019-02-20T13:13:40.546Z,5.50
2019-02-20T13:16:11.710Z,5.17
2019-02-20T13:18:42.447Z,5.65
2019-02-20T13:21:14.600Z,5.10
2019-02-20T13:24:00.431Z,4.80
2019-02-20T13:26:40.904Z,5.97
2019-02-20T13:29:26.755Z,4.97
2019-02-20T13:32:12.504Z,5.10
2019-02-20T13:42:04.436Z,4.40
2019-02-20T13:44:51.124Z,4.40
2019-02-20T13:47:36.590Z,4.30
2019-02-20T13:50:23.747Z,4.60
2019-02-20T13:53:15.780Z,4.25
2019-02-20T13:56:01.753Z,4.15
2019-02-20T14:06:19.408Z,6.42
2019-02-20T14:09:01.738Z,7.55
2019-02-20T14:11:47.071Z,6.73
2019-02-20T14:14:34.200Z,6.83
2019-02-20T14:17:16.841Z,6.75
2019-02-20T14:19:58.973Z,7.28
2019-02-20T14:22:45.948Z,8.93
2019-02-20T14:25:36.506Z,7.90
2019-02-20T14:28:33.999Z,7.60
2019-02-20T14:31:19.144Z,7.17
2019-02-20T14:34:01.537Z,7.35
2019-02-20T14:36:52.888Z,7.20
2019-02-20T14:39:48.249Z,7.35
2019-02-20T14:42:38.955Z,13.15
2019-02-20T14:45:33.657Z,9.13
2019-02-20T14:48:26.800Z,8.28
2019-02-20T14:51:16.177Z,9.45
2019-02-20T14:53:58.171Z,10.60
2019-02-20T14:56:45.566Z,12.93
2019-02-20T14:59:35.403Z,11.88
2019-02-20T15:02:22.651Z,9.48
2019-02-20T15:05:13.014Z,7.40
2019-02-20T15:07:55.197Z,8.43
2019-02-20T15:10:45.617Z,8.10
2019-02-20T15:13:26.954Z,8.55
2019-02-20T15:16:03.085Z,6.67
2019-02-20T15:18:38.388Z,8.48
2019-02-20T15:21:35.226Z,8.20
2019-02-20T15:24:16.485Z,8.38
2019-02-20T15:26:56.192Z,8.65
2019-02-20T15:29:38.448Z,7.58
2019-02-20T15:32:22.024Z,7.43
2019-02-20T15:34:58.176Z,10.08
2019-02-20T15:37:52.235Z,8.55
2019-02-20T15:40:35.255Z,9.58
2019-02-20T15:43:18.553Z,16.87
2019-02-20T15:46:05.963Z,15.83
2019-02-20T15:48:49.723Z,8.85
2019-02-20T15:51:35.342Z,9.48
2019-02-20T15:54:19.540Z,9.58
2019-02-20T15:56:55.983Z,10.55
2019-02-20T15:59:35.770Z,10.40
2019-02-20T16:02:17.093Z,9.50
2019-02-20T16:04:58.234Z,9.23
2019-02-20T16:07:31.145Z,9.85
2019-02-20T16:10:11.808Z,7.62
2019-02-20T16:12:50.181Z,9.28
2019-02-20T16:15:35.194Z,10.50
2019-02-20T16:18:19.937Z,11.33
2019-02-20T16:20:58.875Z,12.18
2019-02-20T16:23:33.719Z,13.50
2019-02-20T16:26:08.944Z,14.55
2019-02-20T16:28:41.028Z,12.53
2019-02-20T16:31:21.897Z,15.23
2019-02-20T16:34:00.131Z,15.85
2019-02-20T16:36:45.590Z,12.90
2019-02-20T16:39:26.065Z,12.28
2019-02-20T16:42:04.865Z,16.50
2019-02-20T16:44:46.739Z,12.98
2019-02-20T16:47:26.838Z,11.83
2019-02-20T16:50:05.089Z,11.05
2019-02-20T16:52:43.614Z,53.83
2019-02-20T16:55:19.121Z,40.95
2019-02-20T16:57:55.964Z,11.65
2019-02-20T17:00:21.789Z,13.72
2019-02-20T17:02:53.698Z,12.47
2019-02-20T17:05:24.655Z,12.43
2019-02-20T17:07:55.132Z,11.78
2019-02-20T17:10:26.011Z,10.05
2019-02-20T17:13:05.415Z,11.25
2019-02-20T17:15:38.110Z,12.23
2019-02-20T17:18:09.549Z,12.10
2019-02-20T17:20:43.800Z,12.80
2019-02-20T17:23:14.469Z,21.05
2019-02-20T17:25:45.768Z,14.83
2019-02-20T17:28:17.751Z,14.00
2019-02-20T17:30:49.982Z,16.95
2019-02-20T17:33:20.715Z,14.23
2019-02-20T17:35:50.980Z,12.98
2019-02-20T17:38:21.850Z,10.93
2019-02-20T17:40:52.417Z,12.43
2019-02-20T17:43:22.764Z,29.75
2019-02-20T17:45:53.165Z,15.58
2019-02-20T17:48:23.570Z,14.53
2019-02-20T17:50:54.320Z,15.72
2019-02-20T17:53:25.278Z,15.43
2019-02-20T17:55:56.859Z,14.07
2019-02-20T17:58:27.754Z,15.68
2019-02-20T18:00:59.256Z,13.60
2019-02-20T18:03:29.809Z,22.32
2019-02-20T18:06:00.124Z,14.20
2019-02-20T18:08:30.520Z,12.98
2019-02-20T18:11:01.677Z,13.85
2019-02-20T18:13:32.292Z,12.55
2019-02-20T18:16:04.862Z,13.28
2019-02-20T18:18:35.310Z,19.53
2019-02-20T18:21:05.669Z,13.90
2019-02-20T18:23:36.007Z,12.13
2019-02-20T18:26:06.869Z,10.65
2019-02-20T18:28:37.833Z,9.28
2019-02-20T18:31:08.226Z,11.60
2019-02-20T18:33:38.582Z,15.95
2019-02-20T18:36:08.960Z,19.02
2019-02-20T18:38:39.486Z,96.02
2019-02-20T18:41:10.002Z,25.37
2019-02-20T18:43:40.693Z,22.33
2019-02-20T18:46:11.427Z,13.80
2019-02-20T18:48:42.587Z,14.60
2019-02-20T18:51:13.496Z,16.32
2019-02-20T18:53:45.096Z,17.20
2019-02-20T18:56:16.043Z,14.10
2019-02-20T18:58:47.180Z,15.88
2019-02-20T19:01:21.174Z,18.27
2019-02-20T19:03:57.167Z,17.87
2019-02-20T19:06:32.071Z,23.33
2019-02-20T19:09:13.478Z,27.30
2019-02-20T19:11:51.111Z,22.15
2019-02-20T19:14:25.339Z,36.13
2019-02-20T19:17:00.860Z,18.05
2019-02-20T19:19:33.459Z,14.83
2019-02-20T19:22:07.941Z,17.77
2019-02-20T19:24:48.661Z,20.68
2019-02-20T19:27:25.087Z,14.77
2019-02-20T19:30:01.015Z,18.97
2019-02-20T19:32:39.655Z,15.93
2019-02-20T19:35:14.550Z,19.52
2019-02-20T19:37:47.308Z,17.53
2019-02-20T19:40:21.599Z,15.73
2019-02-20T19:42:56.200Z,12.77
2019-02-20T19:45:30.102Z,17.60
2019-02-20T19:48:04.449Z,13.37
2019-02-20T19:50:39.643Z,21.03
2019-02-20T19:53:14.528Z,22.15
2019-02-20T19:55:46.961Z,23.30
2019-02-20T19:58:21.573Z,28.45
2019-02-20T20:00:56.439Z,19.13
2019-02-20T20:03:30.461Z,17.17
2019-02-20T20:06:04.650Z,14.50
2019-02-20T20:08:38.603Z,21.15
2019-02-20T20:11:12.704Z,18.70
2019-02-20T20:13:47.863Z,15.60
2019-02-20T20:16:22.318Z,14.20
2019-02-20T20:18:56.895Z,14.57
2019-02-20T20:21:31.225Z,15.13
2019-02-20T20:24:05.556Z,15.87
2019-02-20T20:26:37.980Z,13.70
2019-02-20T20:29:12.278Z,13.73
2019-02-20T20:31:46.765Z,13.80
2019-02-20T20:34:19.066Z,14.37
2019-02-20T20:36:53.257Z,16.83
2019-02-20T20:39:28.075Z,17.17
2019-02-20T20:42:02.579Z,18.37
2019-02-20T20:44:52.261Z,24.97
2019-02-20T20:47:26.508Z,16.93
2019-02-20T20:50:00.752Z,16.23
2019-02-20T20:52:34.905Z,21.90
2019-02-20T20:55:10.232Z,17.55
2019-02-20T20:57:47.762Z,17.47
2019-02-20T21:00:21.843Z,22.90
2019-02-20T21:02:55.840Z,18.77
2019-02-20T21:05:30.642Z,20.80
2019-02-20T21:08:04.847Z,18.30
2019-02-20T21:10:38.973Z,18.87
2019-02-20T21:13:12.854Z,18.60
2019-02-20T21:15:45.016Z,20.07
2019-02-20T21:18:19.736Z,21.12
2019-02-20T21:20:55.272Z,20.00
2019-02-20T21:23:34.370Z,18.83
2019-02-20T21:26:10.090Z,20.70
2019-02-20T21:28:53.139Z,19.53
2019-02-20T21:31:39.541Z,20.43
2019-02-20T21:34:18.387Z,20.60
2019-02-20T21:36:53.790Z,19.37
2019-02-20T21:39:28.395Z,21.23
2019-02-20T21:42:03.030Z,18.50
2019-02-20T21:44:36.787Z,17.93
2019-02-20T21:47:11.729Z,25.47
2019-02-20T21:49:47.690Z,17.63
2019-02-20T21:52:25.286Z,16.80
2019-02-20T21:55:00.418Z,15.60
2019-02-20T21:57:33.747Z,16.90
2019-02-20T22:00:08.143Z,16.87
2019-02-20T22:02:43.752Z,15.57
2019-02-20T22:05:16.272Z,15.00
2019-02-20T22:07:50.426Z,16.27
2019-02-20T22:10:24.649Z,13.97
2019-02-20T22:12:57.049Z,16.57
2019-02-20T22:15:29.318Z,15.43
2019-02-20T22:18:03.447Z,16.67
2019-02-20T22:20:39.548Z,20.17
2019-02-20T22:23:13.660Z,16.60
2019-02-20T22:25:45.903Z,16.50
2019-02-20T22:28:20.084Z,19.43
2019-02-20T22:30:53.972Z,16.13
2019-02-20T22:33:28.011Z,14.87
2019-02-20T22:36:03.573Z,15.40
2019-02-20T23:48:19.483Z,14.63
2019-02-20T23:50:50.281Z,14.77
2019-02-20T23:53:21.460Z,13.40
2019-02-20T23:55:52.499Z,14.57
2019-02-20T23:58:23.302Z,14.13
